sensor_id;sensor_type;location;lat;lon;timestamp;pressure;altitude;pressure_sealevel;temperature;humidity
6778;BME280;3426;52.244;10.534;2023-02-03T00:00:23;101155.41;;;8.51;77.75
6778;BME280;3426;52.244;10.534;2023-02-03T00:02:53;101155.78;;;8.15;80.45
6778;BME280;3426;52.244;10.534;2023-02-03T00:05:20;101146.16;;;8.14;79.68
6778;BME280;3426;52.244;10.534;2023-02-03T00:07:47;101146.38;;;7.58;82.93
6778;BME280;3426;52.244;10.534;2023-02-03T00:10:15;101154.19;;;7.35;82.93
6778;BME280;3426;52.244;10.534;2023-02-03T00:13:24;101141.94;;;7.34;85.88
6778;BME280;3426;52.244;10.534;2023-02-03T00:16:25;101138.53;;;7.57;84.05
6778;BME280;3426;52.244;10.534;2023-02-03T00:19:31;101131.66;;;8.51;79.39
6778;BME280;3426;52.244;10.534;2023-02-03T00:21:57;101133.19;;;7.58;83.36
6778;BME280;3426;52.244;10.534;2023-02-03T00:24:23;101130.53;;;7.85;81.78
6778;BME280;3426;52.244;10.534;2023-02-03T00:27:25;101121.34;;;8.20;82.92
6778;BME280;3426;52.244;10.534;2023-02-03T00:29:58;101123.22;;;8.41;81.40
6778;BME280;3426;52.244;10.534;2023-02-03T00:32:24;101109.63;;;8.04;79.85
6778;BME280;3426;52.244;10.534;2023-02-03T00:35:00;101117.06;;;8.41;80.71
6778;BME280;3426;52.244;10.534;2023-02-03T00:40:52;101106.88;;;8.07;83.90
6778;BME280;3426;52.244;10.534;2023-02-03T00:43:19;101103.78;;;8.66;80.55
6778;BME280;3426;52.244;10.534;2023-02-03T00:46:24;101090.81;;;8.13;82.69
6778;BME280;3426;52.244;10.534;2023-02-03T00:48:50;101091.34;;;8.91;79.85
6778;BME280;3426;52.244;10.534;2023-02-03T00:51:23;101100.63;;;8.56;80.37
6778;BME280;3426;52.244;10.534;2023-02-03T00:54:25;101102.56;;;8.04;82.32
6778;BME280;3426;52.244;10.534;2023-02-03T00:57:24;101091.06;;;8.75;81.54
6778;BME280;3426;52.244;10.534;2023-02-03T00:59:50;101101.31;;;8.61;82.88
6778;BME280;3426;52.244;10.534;2023-02-03T01:02:23;101101.81;;;8.71;82.41
6778;BME280;3426;52.244;10.534;2023-02-03T01:04:50;101087.03;;;8.43;82.33
6778;BME280;3426;52.244;10.534;2023-02-03T01:07:24;101096.63;;;8.91;83.07
6778;BME280;3426;52.244;10.534;2023-02-03T01:09:50;101084.09;;;8.28;85.33
6778;BME280;3426;52.244;10.534;2023-02-03T01:12:17;101082.34;;;8.73;82.80
6778;BME280;3426;52.244;10.534;2023-02-03T01:14:43;101088.47;;;8.52;84.63
6778;BME280;3426;52.244;10.534;2023-02-03T01:17:28;101080.25;;;8.60;83.54
6778;BME280;3426;52.244;10.534;2023-02-03T01:20:00;101079.91;;;8.69;82.79
6778;BME280;3426;52.244;10.534;2023-02-03T01:22:30;101064.78;;;8.94;82.18
6778;BME280;3426;52.244;10.534;2023-02-03T01:25:00;101059.19;;;9.02;81.76
6778;BME280;3426;52.244;10.534;2023-02-03T01:27:26;101067.63;;;8.68;84.13
6778;BME280;3426;52.244;10.534;2023-02-03T01:30:02;101061.25;;;9.16;83.35
6778;BME280;3426;52.244;10.534;2023-02-03T01:32:42;101075.72;;;8.63;84.84
6778;BME280;3426;52.244;10.534;2023-02-03T01:35:24;101075.84;;;8.60;84.42
6778;BME280;3426;52.244;10.534;2023-02-03T01:38:25;101083.94;;;8.77;84.17
6778;BME280;3426;52.244;10.534;2023-02-03T01:41:25;101068.19;;;9.18;83.41
6778;BME280;3426;52.244;10.534;2023-02-03T01:43:54;101075.41;;;8.93;83.82
6778;BME280;3426;52.244;10.534;2023-02-03T01:48:57;101061.03;;;9.42;82.52
6778;BME280;3426;52.244;10.534;2023-02-03T01:51:51;101056.63;;;8.57;86.05
6778;BME280;3426;52.244;10.534;2023-02-03T01:54:29;101048.25;;;8.89;85.76
6778;BME280;3426;52.244;10.534;2023-02-03T02:00:23;101054.88;;;9.42;86.21
6778;BME280;3426;52.244;10.534;2023-02-03T02:02:50;101054.81;;;9.01;87.22
6778;BME280;3426;52.244;10.534;2023-02-03T02:05:41;101033.47;;;9.48;86.36
6778;BME280;3426;52.244;10.534;2023-02-03T02:08:11;101040.09;;;9.77;85.11
6778;BME280;3426;52.244;10.534;2023-02-03T02:10:39;101040.47;;;9.49;84.71
6778;BME280;3426;52.244;10.534;2023-02-03T02:13:07;101036.75;;;9.53;85.63
6778;BME280;3426;52.244;10.534;2023-02-03T02:15:42;101019.00;;;9.36;86.14
6778;BME280;3426;52.244;10.534;2023-02-03T02:26:49;101013.09;;;9.09;87.76
6778;BME280;3426;52.244;10.534;2023-02-03T02:29:50;101003.56;;;9.46;86.45
6778;BME280;3426;52.244;10.534;2023-02-03T02:35:17;100985.03;;;9.66;84.43
6778;BME280;3426;52.244;10.534;2023-02-03T02:38:01;100989.63;;;9.81;84.75
6778;BME280;3426;52.244;10.534;2023-02-03T02:40:39;100980.19;;;9.76;84.69
6778;BME280;3426;52.244;10.534;2023-02-03T02:46:00;100971.44;;;9.74;83.97
6778;BME280;3426;52.244;10.534;2023-02-03T02:48:32;100958.06;;;9.58;84.31
6778;BME280;3426;52.244;10.534;2023-02-03T02:51:02;100958.88;;;9.60;85.07
6778;BME280;3426;52.244;10.534;2023-02-03T02:53:33;100944.91;;;9.56;84.19
6778;BME280;3426;52.244;10.534;2023-02-03T02:56:04;100931.69;;;10.13;82.81
6778;BME280;3426;52.244;10.534;2023-02-03T02:58:34;100923.13;;;9.51;84.55
6778;BME280;3426;52.244;10.534;2023-02-03T03:01:01;100924.53;;;9.40;85.06
6778;BME280;3426;52.244;10.534;2023-02-03T03:03:29;100900.03;;;10.12;81.48
6778;BME280;3426;52.244;10.534;2023-02-03T03:05:59;100906.84;;;9.79;84.15
6778;BME280;3426;52.244;10.534;2023-02-03T03:08:36;100886.47;;;10.18;80.65
6778;BME280;3426;52.244;10.534;2023-02-03T03:11:04;100887.31;;;10.37;80.02
6778;BME280;3426;52.244;10.534;2023-02-03T03:13:36;100880.13;;;10.03;81.94
6778;BME280;3426;52.244;10.534;2023-02-03T03:16:05;100883.53;;;9.69;81.48
6778;BME280;3426;52.244;10.534;2023-02-03T03:18:41;100897.41;;;9.55;82.54
6778;BME280;3426;52.244;10.534;2023-02-03T03:21:11;100904.03;;;9.64;81.94
6778;BME280;3426;52.244;10.534;2023-02-03T03:23:41;100913.91;;;9.98;81.54
6778;BME280;3426;52.244;10.534;2023-02-03T03:26:41;100931.28;;;9.85;82.45
6778;BME280;3426;52.244;10.534;2023-02-03T03:29:14;100930.06;;;9.54;82.78
6778;BME280;3426;52.244;10.534;2023-02-03T03:31:43;100937.16;;;9.91;81.08
6778;BME280;3426;52.244;10.534;2023-02-03T03:34:11;100931.63;;;9.96;80.77
6778;BME280;3426;52.244;10.534;2023-02-03T03:39:42;100924.25;;;10.02;79.85
6778;BME280;3426;52.244;10.534;2023-02-03T03:45:23;100910.34;;;9.99;80.43
6778;BME280;3426;52.244;10.534;2023-02-03T03:48:08;100905.09;;;10.16;79.93
6778;BME280;3426;52.244;10.534;2023-02-03T03:50:56;100920.56;;;9.88;79.21
6778;BME280;3426;52.244;10.534;2023-02-03T03:53:25;100901.69;;;9.95;77.86
6778;BME280;3426;52.244;10.534;2023-02-03T03:55:54;100903.59;;;9.92;78.67
6778;BME280;3426;52.244;10.534;2023-02-03T03:58:29;100898.31;;;10.11;79.02
6778;BME280;3426;52.244;10.534;2023-02-03T04:01:00;100881.91;;;10.21;77.86
6778;BME280;3426;52.244;10.534;2023-02-03T04:03:40;100880.91;;;10.24;77.24
6778;BME280;3426;52.244;10.534;2023-02-03T04:06:10;100884.75;;;9.80;77.91
6778;BME280;3426;52.244;10.534;2023-02-03T04:08:37;100893.69;;;9.78;78.96
6778;BME280;3426;52.244;10.534;2023-02-03T04:11:05;100898.69;;;9.65;78.63
6778;BME280;3426;52.244;10.534;2023-02-03T04:13:31;100898.91;;;9.98;78.21
6778;BME280;3426;52.244;10.534;2023-02-03T04:15:58;100892.00;;;10.13;77.91
6778;BME280;3426;52.244;10.534;2023-02-03T04:18:24;100882.28;;;10.50;76.44
6778;BME280;3426;52.244;10.534;2023-02-03T04:20:51;100876.50;;;10.59;75.76
6778;BME280;3426;52.244;10.534;2023-02-03T04:23:17;100879.00;;;10.27;76.76
6778;BME280;3426;52.244;10.534;2023-02-03T04:25:44;100862.22;;;9.91;77.81
6778;BME280;3426;52.244;10.534;2023-02-03T04:28:10;100861.19;;;10.12;76.64
6778;BME280;3426;52.244;10.534;2023-02-03T04:30:37;100864.09;;;9.89;77.84
6778;BME280;3426;52.244;10.534;2023-02-03T04:33:04;100860.69;;;10.04;76.89
6778;BME280;3426;52.244;10.534;2023-02-03T04:35:30;100862.41;;;10.41;76.77
6778;BME280;3426;52.244;10.534;2023-02-03T04:37:57;100854.44;;;9.88;76.92
6778;BME280;3426;52.244;10.534;2023-02-03T04:40:23;100851.84;;;10.05;77.49
6778;BME280;3426;52.244;10.534;2023-02-03T04:42:50;100858.88;;;10.23;75.93
6778;BME280;3426;52.244;10.534;2023-02-03T04:45:16;100870.53;;;10.55;74.25
6778;BME280;3426;52.244;10.534;2023-02-03T04:47:43;100859.75;;;10.24;74.66
6778;BME280;3426;52.244;10.534;2023-02-03T04:50:09;100856.03;;;10.45;74.19
6778;BME280;3426;52.244;10.534;2023-02-03T04:52:36;100867.00;;;10.55;75.08
6778;BME280;3426;52.244;10.534;2023-02-03T04:55:03;100860.75;;;9.66;77.14
6778;BME280;3426;52.244;10.534;2023-02-03T04:57:29;100865.88;;;9.88;76.91
6778;BME280;3426;52.244;10.534;2023-02-03T04:59:56;100856.25;;;10.23;75.70
6778;BME280;3426;52.244;10.534;2023-02-03T05:02:22;100858.44;;;10.67;74.80
6778;BME280;3426;52.244;10.534;2023-02-03T05:04:49;100844.78;;;10.04;76.49
6778;BME280;3426;52.244;10.534;2023-02-03T05:07:15;100839.81;;;10.34;75.08
6778;BME280;3426;52.244;10.534;2023-02-03T05:09:42;100835.34;;;10.86;72.22
6778;BME280;3426;52.244;10.534;2023-02-03T05:12:08;100838.56;;;10.58;73.79
6778;BME280;3426;52.244;10.534;2023-02-03T05:14:35;100839.59;;;10.73;73.70
6778;BME280;3426;52.244;10.534;2023-02-03T05:17:01;100830.38;;;10.80;72.40
6778;BME280;3426;52.244;10.534;2023-02-03T05:19:27;100825.50;;;10.38;73.53
6778;BME280;3426;52.244;10.534;2023-02-03T05:21:54;100822.56;;;10.27;75.51
6778;BME280;3426;52.244;10.534;2023-02-03T05:24:20;100817.94;;;10.30;74.22
6778;BME280;3426;52.244;10.534;2023-02-03T05:26:47;100820.25;;;11.04;71.83
6778;BME280;3426;52.244;10.534;2023-02-03T05:29:13;100802.19;;;10.62;72.72
6778;BME280;3426;52.244;10.534;2023-02-03T05:31:40;100799.88;;;10.56;74.23
6778;BME280;3426;52.244;10.534;2023-02-03T05:34:06;100795.47;;;10.90;73.29
6778;BME280;3426;52.244;10.534;2023-02-03T05:36:33;100806.38;;;10.66;73.79
6778;BME280;3426;52.244;10.534;2023-02-03T05:38:59;100793.34;;;10.28;73.24
6778;BME280;3426;52.244;10.534;2023-02-03T05:41:26;100793.03;;;10.34;73.66
6778;BME280;3426;52.244;10.534;2023-02-03T05:44:11;100766.97;;;10.93;71.53
6778;BME280;3426;52.244;10.534;2023-02-03T05:46:37;100766.66;;;10.99;70.87
6778;BME280;3426;52.244;10.534;2023-02-03T05:49:03;100759.31;;;10.71;72.54
6778;BME280;3426;52.244;10.534;2023-02-03T05:51:30;100765.47;;;10.72;73.22
6778;BME280;3426;52.244;10.534;2023-02-03T05:53:57;100776.81;;;10.58;73.29
6778;BME280;3426;52.244;10.534;2023-02-03T05:56:23;100773.09;;;10.45;73.07
6778;BME280;3426;52.244;10.534;2023-02-03T05:58:49;100770.78;;;10.72;71.80
6778;BME280;3426;52.244;10.534;2023-02-03T06:01:19;100774.88;;;10.44;73.70
6778;BME280;3426;52.244;10.534;2023-02-03T06:03:46;100769.72;;;10.58;71.93
6778;BME280;3426;52.244;10.534;2023-02-03T06:06:13;100776.41;;;10.48;73.71
6778;BME280;3426;52.244;10.534;2023-02-03T06:08:39;100792.06;;;10.70;72.13
6778;BME280;3426;52.244;10.534;2023-02-03T06:11:06;100782.97;;;10.92;71.64
6778;BME280;3426;52.244;10.534;2023-02-03T06:13:33;100769.16;;;11.18;71.96
6778;BME280;3426;52.244;10.534;2023-02-03T06:15:59;100779.47;;;10.58;72.48
6778;BME280;3426;52.244;10.534;2023-02-03T06:18:26;100781.97;;;10.44;73.41
6778;BME280;3426;52.244;10.534;2023-02-03T06:20:52;100777.34;;;10.98;71.22
6778;BME280;3426;52.244;10.534;2023-02-03T06:23:19;100777.88;;;10.19;73.68
6778;BME280;3426;52.244;10.534;2023-02-03T06:25:50;100776.97;;;10.38;74.20
6778;BME280;3426;52.244;10.534;2023-02-03T06:28:17;100780.19;;;10.27;73.91
6778;BME280;3426;52.244;10.534;2023-02-03T06:30:44;100790.88;;;10.06;74.95
6778;BME280;3426;52.244;10.534;2023-02-03T06:33:10;100775.97;;;10.91;72.67
6778;BME280;3426;52.244;10.534;2023-02-03T06:35:37;100784.75;;;10.58;72.83
6778;BME280;3426;52.244;10.534;2023-02-03T06:38:04;100783.69;;;10.45;73.68
6778;BME280;3426;52.244;10.534;2023-02-03T06:40:31;100784.84;;;10.56;73.65
6778;BME280;3426;52.244;10.534;2023-02-03T06:42:57;100772.31;;;10.25;75.38
6778;BME280;3426;52.244;10.534;2023-02-03T06:45:24;100773.63;;;10.17;75.07
6778;BME280;3426;52.244;10.534;2023-02-03T06:47:51;100766.00;;;10.45;74.04
6778;BME280;3426;52.244;10.534;2023-02-03T06:50:17;100754.88;;;10.21;75.47
6778;BME280;3426;52.244;10.534;2023-02-03T06:52:44;100756.56;;;10.22;76.38
6778;BME280;3426;52.244;10.534;2023-02-03T06:55:10;100763.09;;;10.67;74.57
6778;BME280;3426;52.244;10.534;2023-02-03T06:57:47;100740.53;;;10.43;76.28
6778;BME280;3426;52.244;10.534;2023-02-03T07:00:15;100734.00;;;10.50;74.85
6778;BME280;3426;52.244;10.534;2023-02-03T07:02:44;100746.09;;;10.38;76.10
6778;BME280;3426;52.244;10.534;2023-02-03T07:05:11;100734.28;;;10.09;76.14
6778;BME280;3426;52.244;10.534;2023-02-03T07:07:38;100731.59;;;10.11;78.36
6778;BME280;3426;52.244;10.534;2023-02-03T07:10:05;100721.91;;;10.61;75.53
6778;BME280;3426;52.244;10.534;2023-02-03T07:12:31;100716.16;;;9.84;78.02
6778;BME280;3426;52.244;10.534;2023-02-03T07:14:58;100727.47;;;9.88;78.92
6778;BME280;3426;52.244;10.534;2023-02-03T07:17:24;100718.19;;;9.96;78.08
6778;BME280;3426;52.244;10.534;2023-02-03T07:19:51;100719.34;;;10.43;76.34
6778;BME280;3426;52.244;10.534;2023-02-03T07:22:17;100711.41;;;10.43;75.27
6778;BME280;3426;52.244;10.534;2023-02-03T07:24:44;100701.44;;;10.13;77.53
6778;BME280;3426;52.244;10.534;2023-02-03T07:27:11;100706.06;;;10.27;77.82
6778;BME280;3426;52.244;10.534;2023-02-03T07:29:37;100708.44;;;10.49;76.49
6778;BME280;3426;52.244;10.534;2023-02-03T07:32:04;100709.75;;;10.57;75.93
6778;BME280;3426;52.244;10.534;2023-02-03T07:34:30;100702.47;;;10.11;77.73
6778;BME280;3426;52.244;10.534;2023-02-03T07:36:57;100715.97;;;10.23;78.10
6778;BME280;3426;52.244;10.534;2023-02-03T07:39:24;100721.97;;;10.60;76.96
6778;BME280;3426;52.244;10.534;2023-02-03T07:41:50;100724.97;;;10.37;77.45
6778;BME280;3426;52.244;10.534;2023-02-03T07:44:17;100696.41;;;10.59;76.42
6778;BME280;3426;52.244;10.534;2023-02-03T07:46:43;100702.53;;;10.44;76.63
6778;BME280;3426;52.244;10.534;2023-02-03T07:49:11;100712.34;;;9.90;79.39
6778;BME280;3426;52.244;10.534;2023-02-03T07:51:37;100704.31;;;10.76;77.68
6778;BME280;3426;52.244;10.534;2023-02-03T07:54:04;100693.16;;;10.54;77.79
6778;BME280;3426;52.244;10.534;2023-02-03T07:56:30;100684.53;;;10.66;76.85
6778;BME280;3426;52.244;10.534;2023-02-03T07:58:58;100684.34;;;10.53;77.23
6778;BME280;3426;52.244;10.534;2023-02-03T08:01:25;100673.47;;;10.42;79.43
6778;BME280;3426;52.244;10.534;2023-02-03T08:03:52;100695.53;;;10.08;80.12
6778;BME280;3426;52.244;10.534;2023-02-03T08:06:20;100685.81;;;9.91;79.87
6778;BME280;3426;52.244;10.534;2023-02-03T08:08:47;100660.56;;;10.36;79.22
6778;BME280;3426;52.244;10.534;2023-02-03T08:11:13;100668.00;;;10.12;80.04
6778;BME280;3426;52.244;10.534;2023-02-03T08:13:40;100675.56;;;10.53;78.18
6778;BME280;3426;52.244;10.534;2023-02-03T08:16:06;100674.56;;;10.21;79.13
6778;BME280;3426;52.244;10.534;2023-02-03T08:18:33;100674.06;;;9.97;79.82
6778;BME280;3426;52.244;10.534;2023-02-03T08:20:59;100674.66;;;10.37;78.02
6778;BME280;3426;52.244;10.534;2023-02-03T08:23:27;100691.19;;;9.90;80.59
6778;BME280;3426;52.244;10.534;2023-02-03T08:25:54;100677.97;;;10.57;78.60
6778;BME280;3426;52.244;10.534;2023-02-03T08:28:20;100664.59;;;10.43;78.53
6778;BME280;3426;52.244;10.534;2023-02-03T08:30:47;100686.34;;;9.63;82.29
6778;BME280;3426;52.244;10.534;2023-02-03T08:33:13;100693.97;;;10.04;82.09
6778;BME280;3426;52.244;10.534;2023-02-03T08:35:40;100710.66;;;10.23;80.80
6778;BME280;3426;52.244;10.534;2023-02-03T08:38:10;100690.41;;;10.40;78.63
6778;BME280;3426;52.244;10.534;2023-02-03T08:40:37;100679.66;;;10.58;78.92
6778;BME280;3426;52.244;10.534;2023-02-03T08:43:03;100680.28;;;10.30;79.54
6778;BME280;3426;52.244;10.534;2023-02-03T08:45:30;100681.38;;;10.26;79.32
6778;BME280;3426;52.244;10.534;2023-02-03T08:47:56;100669.44;;;10.68;78.01
6778;BME280;3426;52.244;10.534;2023-02-03T08:50:23;100665.97;;;10.34;79.01
6778;BME280;3426;52.244;10.534;2023-02-03T08:52:49;100671.16;;;10.19;79.39
6778;BME280;3426;52.244;10.534;2023-02-03T08:55:16;100681.69;;;9.86;80.37
6778;BME280;3426;52.244;10.534;2023-02-03T08:57:42;100669.56;;;10.49;79.03
6778;BME280;3426;52.244;10.534;2023-02-03T09:00:10;100668.56;;;10.52;79.32
6778;BME280;3426;52.244;10.534;2023-02-03T09:02:36;100651.88;;;10.17;80.28
6778;BME280;3426;52.244;10.534;2023-02-03T09:05:03;100655.88;;;10.41;80.54
6778;BME280;3426;52.244;10.534;2023-02-03T09:07:29;100639.25;;;10.55;79.49
6778;BME280;3426;52.244;10.534;2023-02-03T09:09:56;100653.69;;;9.99;81.38
6778;BME280;3426;52.244;10.534;2023-02-03T09:12:22;100651.78;;;10.18;81.45
6778;BME280;3426;52.244;10.534;2023-02-03T09:14:49;100637.81;;;10.81;77.25
6778;BME280;3426;52.244;10.534;2023-02-03T09:17:16;100652.63;;;10.36;79.50
6778;BME280;3426;52.244;10.534;2023-02-03T09:19:42;100649.53;;;10.61;78.94
6778;BME280;3426;52.244;10.534;2023-02-03T09:22:09;100651.41;;;10.08;80.39
6778;BME280;3426;52.244;10.534;2023-02-03T09:24:35;100655.66;;;10.46;79.16
6778;BME280;3426;52.244;10.534;2023-02-03T09:27:01;100649.78;;;10.23;81.52
6778;BME280;3426;52.244;10.534;2023-02-03T09:29:28;100632.19;;;10.55;80.81
6778;BME280;3426;52.244;10.534;2023-02-03T09:31:55;100646.34;;;10.39;80.53
6778;BME280;3426;52.244;10.534;2023-02-03T09:34:21;100642.78;;;10.87;81.15
6778;BME280;3426;52.244;10.534;2023-02-03T09:36:48;100659.94;;;10.64;82.36
6778;BME280;3426;52.244;10.534;2023-02-03T09:39:16;100654.88;;;10.44;81.74
6778;BME280;3426;52.244;10.534;2023-02-03T09:41:59;100658.81;;;10.02;84.38
6778;BME280;3426;52.244;10.534;2023-02-03T09:47:22;100638.06;;;10.76;81.02
6778;BME280;3426;52.244;10.534;2023-02-03T09:49:53;100639.00;;;10.59;80.27
6778;BME280;3426;52.244;10.534;2023-02-03T09:52:32;100636.19;;;10.63;81.17
6778;BME280;3426;52.244;10.534;2023-02-03T09:58:15;100634.72;;;11.20;77.01
6778;BME280;3426;52.244;10.534;2023-02-03T10:00:50;100622.44;;;10.72;79.88
6778;BME280;3426;52.244;10.534;2023-02-03T10:08:35;100647.72;;;10.77;78.07
6778;BME280;3426;52.244;10.534;2023-02-03T10:14:11;100645.47;;;10.54;79.81
6778;BME280;3426;52.244;10.534;2023-02-03T10:19:41;100664.03;;;10.54;81.07
6778;BME280;3426;52.244;10.534;2023-02-03T10:22:14;100656.63;;;10.10;83.44
6778;BME280;3426;52.244;10.534;2023-02-03T10:24:50;100659.63;;;10.37;82.66
6778;BME280;3426;52.244;10.534;2023-02-03T10:27:21;100684.31;;;10.03;83.55
6778;BME280;3426;52.244;10.534;2023-02-03T10:32:23;100672.09;;;10.68;81.33
6778;BME280;3426;52.244;10.534;2023-02-03T10:34:50;100692.44;;;10.00;83.05
6778;BME280;3426;52.244;10.534;2023-02-03T10:39:49;100691.16;;;10.42;82.86
6778;BME280;3426;52.244;10.534;2023-02-03T10:42:17;100698.72;;;10.65;82.49
6778;BME280;3426;52.244;10.534;2023-02-03T10:44:57;100681.22;;;10.12;82.68
6778;BME280;3426;52.244;10.534;2023-02-03T10:47:37;100671.72;;;10.25;82.29
6778;BME280;3426;52.244;10.534;2023-02-03T10:50:21;100700.38;;;10.34;82.42
6778;BME280;3426;52.244;10.534;2023-02-03T10:52:48;100699.44;;;10.35;81.68
6778;BME280;3426;52.244;10.534;2023-02-03T10:57:53;100738.25;;;10.85;82.64
6778;BME280;3426;52.244;10.534;2023-02-03T11:00:30;100735.88;;;11.44;80.92
6778;BME280;3426;52.244;10.534;2023-02-03T11:05:35;100710.00;;;9.66;83.76
6778;BME280;3426;52.244;10.534;2023-02-03T11:08:02;100704.81;;;9.82;82.25
6778;BME280;3426;52.244;10.534;2023-02-03T11:10:37;100697.75;;;9.46;83.05
6778;BME280;3426;52.244;10.534;2023-02-03T11:13:26;100723.97;;;9.87;81.29
6778;BME280;3426;52.244;10.534;2023-02-03T11:21:15;100753.97;;;10.21;78.73
6778;BME280;3426;52.244;10.534;2023-02-03T11:23:46;100755.66;;;10.41;78.36
6778;BME280;3426;52.244;10.534;2023-02-03T11:26:18;100755.34;;;10.29;78.76
6778;BME280;3426;52.244;10.534;2023-02-03T11:28:48;100752.75;;;9.57;79.73
6778;BME280;3426;52.244;10.534;2023-02-03T11:31:17;100753.44;;;10.14;77.98
6778;BME280;3426;52.244;10.534;2023-02-03T11:33:47;100758.72;;;10.14;79.07
6778;BME280;3426;52.244;10.534;2023-02-03T11:36:15;100754.88;;;10.21;77.62
6778;BME280;3426;52.244;10.534;2023-02-03T11:38:42;100742.28;;;10.93;76.39
6778;BME280;3426;52.244;10.534;2023-02-03T11:41:18;100740.97;;;10.68;77.62
6778;BME280;3426;52.244;10.534;2023-02-03T11:43:50;100729.22;;;10.56;78.10
6778;BME280;3426;52.244;10.534;2023-02-03T11:46:20;100728.25;;;10.24;78.13
6778;BME280;3426;52.244;10.534;2023-02-03T11:49:03;100740.16;;;10.33;76.88
6778;BME280;3426;52.244;10.534;2023-02-03T11:51:54;100754.69;;;10.92;75.42
6778;BME280;3426;52.244;10.534;2023-02-03T11:54:37;100736.94;;;10.09;75.63
6778;BME280;3426;52.244;10.534;2023-02-03T12:00:06;100754.69;;;10.42;75.60
6778;BME280;3426;52.244;10.534;2023-02-03T12:13:13;100756.75;;;11.34;74.33
6778;BME280;3426;52.244;10.534;2023-02-03T12:15:58;100756.78;;;11.19;73.68
6778;BME280;3426;52.244;10.534;2023-02-03T12:26:29;100765.69;;;10.51;73.65
6778;BME280;3426;52.244;10.534;2023-02-03T12:32:01;100780.72;;;10.51;73.67
6778;BME280;3426;52.244;10.534;2023-02-03T12:34:34;100764.28;;;10.77;73.13
6778;BME280;3426;52.244;10.534;2023-02-03T12:37:04;100769.81;;;10.90;74.38
6778;BME280;3426;52.244;10.534;2023-02-03T12:39:44;100776.28;;;10.84;71.96
6778;BME280;3426;52.244;10.534;2023-02-03T12:42:38;100776.16;;;11.03;71.90
6778;BME280;3426;52.244;10.534;2023-02-03T12:47:41;100798.84;;;11.56;67.34
6778;BME280;3426;52.244;10.534;2023-02-03T12:50:20;100802.03;;;11.63;67.45
6778;BME280;3426;52.244;10.534;2023-02-03T12:52:57;100806.47;;;11.94;68.29
6778;BME280;3426;52.244;10.534;2023-02-03T12:55:41;100799.13;;;11.36;68.52
6778;BME280;3426;52.244;10.534;2023-02-03T12:58:20;100807.19;;;11.17;69.22
6778;BME280;3426;52.244;10.534;2023-02-03T13:03:42;100785.69;;;11.71;66.62
6778;BME280;3426;52.244;10.534;2023-02-03T13:06:16;100786.94;;;11.95;64.94
6778;BME280;3426;52.244;10.534;2023-02-03T13:08:55;100806.94;;;10.73;67.60
6778;BME280;3426;52.244;10.534;2023-02-03T13:11:39;100804.38;;;11.04;66.48
6778;BME280;3426;52.244;10.534;2023-02-03T13:16:57;100799.88;;;11.38;63.31
6778;BME280;3426;52.244;10.534;2023-02-03T13:19:38;100811.44;;;10.71;63.86
6778;BME280;3426;52.244;10.534;2023-02-03T13:22:11;100808.84;;;11.51;62.64
6778;BME280;3426;52.244;10.534;2023-02-03T13:24:40;100811.31;;;11.07;61.82
6778;BME280;3426;52.244;10.534;2023-02-03T13:38:38;100818.25;;;11.57;57.64
6778;BME280;3426;52.244;10.534;2023-02-03T13:41:23;100816.38;;;10.61;59.42
6778;BME280;3426;52.244;10.534;2023-02-03T13:43:54;100826.94;;;11.11;56.17
6778;BME280;3426;52.244;10.534;2023-02-03T13:46:25;100822.53;;;11.28;54.15
6778;BME280;3426;52.244;10.534;2023-02-03T13:48:53;100824.19;;;10.97;54.01
6778;BME280;3426;52.244;10.534;2023-02-03T13:51:45;100838.72;;;11.23;54.28
6778;BME280;3426;52.244;10.534;2023-02-03T13:56:58;100835.31;;;10.53;53.49
6778;BME280;3426;52.244;10.534;2023-02-03T14:02:29;100837.25;;;11.33;51.77
6778;BME280;3426;52.244;10.534;2023-02-03T14:04:57;100843.78;;;11.59;52.34
6778;BME280;3426;52.244;10.534;2023-02-03T14:17:58;100849.94;;;11.60;53.24
6778;BME280;3426;52.244;10.534;2023-02-03T14:25:20;100864.56;;;11.51;54.03
6778;BME280;3426;52.244;10.534;2023-02-03T14:28:07;100870.72;;;11.36;53.30
6778;BME280;3426;52.244;10.534;2023-02-03T14:36:35;100900.56;;;10.89;53.59
6778;BME280;3426;52.244;10.534;2023-02-03T14:39:32;100877.13;;;10.47;53.98
6778;BME280;3426;52.244;10.534;2023-02-03T14:42:16;100892.47;;;10.57;53.87
6778;BME280;3426;52.244;10.534;2023-02-03T14:45:01;100885.00;;;10.48;53.03
6778;BME280;3426;52.244;10.534;2023-02-03T14:50:36;100898.19;;;11.51;50.02
6778;BME280;3426;52.244;10.534;2023-02-03T14:58:41;100902.56;;;11.52;49.72
6778;BME280;3426;52.244;10.534;2023-02-03T15:06:42;100912.56;;;10.27;50.64
6778;BME280;3426;52.244;10.534;2023-02-03T15:09:29;100920.09;;;11.21;49.65
6778;BME280;3426;52.244;10.534;2023-02-03T15:11:57;100930.91;;;11.34;48.81
6778;BME280;3426;52.244;10.534;2023-02-03T15:14:26;100922.78;;;10.86;49.75
6778;BME280;3426;52.244;10.534;2023-02-03T15:17:11;100926.13;;;11.07;49.59
6778;BME280;3426;52.244;10.534;2023-02-03T15:19:39;100920.59;;;10.95;50.20
6778;BME280;3426;52.244;10.534;2023-02-03T15:24:57;100939.91;;;10.45;50.84
6778;BME280;3426;52.244;10.534;2023-02-03T15:27:26;100937.34;;;11.30;49.15
6778;BME280;3426;52.244;10.534;2023-02-03T15:29:53;100942.50;;;10.98;50.93
6778;BME280;3426;52.244;10.534;2023-02-03T15:32:26;100930.75;;;10.69;50.75
6778;BME280;3426;52.244;10.534;2023-02-03T15:34:56;100939.31;;;10.74;51.52
6778;BME280;3426;52.244;10.534;2023-02-03T15:37:36;100959.97;;;11.53;50.12
6778;BME280;3426;52.244;10.534;2023-02-03T15:45:33;100960.19;;;11.15;49.29
6778;BME280;3426;52.244;10.534;2023-02-03T15:48:32;100969.91;;;10.26;50.83
6778;BME280;3426;52.244;10.534;2023-02-03T15:53:57;100974.53;;;10.76;50.48
6778;BME280;3426;52.244;10.534;2023-02-03T15:56:38;100979.75;;;11.30;49.73
6778;BME280;3426;52.244;10.534;2023-02-03T15:59:20;100998.22;;;11.31;49.14
6778;BME280;3426;52.244;10.534;2023-02-03T16:01:48;100992.69;;;10.48;50.45
6778;BME280;3426;52.244;10.534;2023-02-03T16:04:15;100998.06;;;10.82;50.07